Al-Kharj, Saudi Arabia

8:10 AM AST on August 27, 2016 (GMT +0300)
Prince Sultan Air Base | | Change Station

Elev 1640 ft 24.07 °N, 47.58 °E | Updated 1 hour ago

Clear
Clear
91 °F
Feels Like 91 °F
N
5
Wind Variable Wind from WNW

Today
High -- | Low -- °F
--% Chance of Precip.
Yesterday
High -- | Low -- °F
Precip. -- in
Pressure 29.89 in
Visibility -9999.0 miles
Clouds
Dew Point 36 °F
Humidity 14%
Rainfall 0.00 in
Snow Depth Not available.
5:30 AM 6:13 PM
Waning Crescent, 28% visible
METAR OEKJ 270400Z 29004KT CAVOK 33/02 Q1012
Pressure 29.89 in
Visibility -9999.0 miles
Clouds
Dew Point 36 °F
Humidity 14%
Rainfall 0.00 in
Snow Depth Not available.
5:30 AM 6:13 PM
Waning Crescent, 28% visible
METAR OEKJ 270400Z 29004KT CAVOK 33/02 Q1012

10-Day Weather Forecast

No radar image for this location.
×

Almanac

Astronomy

Aug. 27, 2016 Rise Set
Actual Time
Civil Twilight
Nautical Twilight
Astronomical Twilight
Moon
Length of Visible Light
Length of Day
Tomorrow will be .
, % of the Moon is Illuminated

Today's Extremes

Country Highs Country Lows

Community

WunderPhotos

Upload Photos

1,935,301 photos uploaded!

WunderBlog® & News

Nearby

Air Quality

  Air Quality AQ Index Pollutant
Not available.

Snow Depth

Station Depth Elevation

Earthquake Activity

City Distance Mag. Time & Date
Minimum magnitude displayed is 2.5.

Coastal Water Temperatures

Place Temperature

Stations

Nearby Weather Stations

Station Location Temp. Windchill Dew Point Humidity Wind Precip. Elev Updated Type